Time;durP1;ratioP1;P1;durP2;ratioP2;P2;SDS_P1;SDS_P2;PMS_P1;PMS_P2;Temp;Humidity;BMP_temperature;BMP_pressure;BME280_temperature;BME280_humidity;BME280_pressure;Samples;Min_cycle;Max_cycle;Signal;HPM_P1;HPM_P2
2023/12/08 00:00:32;;;;;;;13.13;7.78;;;1.10;99.90;;;;;;4965733;28;20137;-72
2023/12/08 00:02:58;;;;;;;14.55;8.27;;;1.00;99.90;;;;;;4969872;28;20050;-72
2023/12/08 00:05:24;;;;;;;11.55;6.50;;;1.10;99.90;;;;;;4966302;28;20433;-72
2023/12/08 00:07:49;;;;;;;13.20;7.32;;;1.00;99.90;;;;;;4940276;28;20061;-72
2023/12/08 00:10:15;;;;;;;17.45;8.88;;;1.00;99.90;;;;;;4969203;28;20394;-72
2023/12/08 00:12:42;;;;;;;12.05;7.65;;;1.10;99.90;;;;;;4975237;28;20046;-72
2023/12/08 00:15:09;;;;;;;7.72;4.05;;;1.00;99.90;;;;;;5001575;28;20053;-72
2023/12/08 00:17:35;;;;;;;9.50;4.22;;;1.00;99.90;;;;;;4985552;28;20133;-72
2023/12/08 00:20:01;;;;;;;14.23;8.18;;;1.00;99.90;;;;;;4985663;28;20095;-72
2023/12/08 00:22:27;;;;;;;10.55;6.38;;;1.10;99.90;;;;;;4985628;28;20081;-72
2023/12/08 00:24:53;;;;;;;11.30;6.00;;;1.10;99.90;;;;;;4982752;28;20053;-72
2023/12/08 00:27:19;;;;;;;7.28;4.30;;;1.10;99.90;;;;;;4985309;28;20046;-72
2023/12/08 00:29:44;;;;;;;7.85;4.85;;;1.00;99.90;;;;;;4985571;28;20242;-72
2023/12/08 00:32:10;;;;;;;8.93;5.35;;;1.10;99.90;;;;;;4996042;28;20129;-72
2023/12/08 00:34:36;;;;;;;10.60;6.05;;;1.10;99.90;;;;;;4966701;28;20038;-72
2023/12/08 00:37:01;;;;;;;11.60;7.18;;;1.10;99.90;;;;;;4964421;28;20058;-72
2023/12/08 00:39:27;;;;;;;3.75;3.42;;;1.00;99.90;;;;;;4963083;28;20796;-72
2023/12/08 00:41:53;;;;;;;9.25;5.22;;;1.00;99.90;;;;;;4957887;28;20054;-72
2023/12/08 00:44:18;;;;;;;13.57;8.57;;;1.10;99.90;;;;;;4977665;28;20131;-72
2023/12/08 00:46:44;;;;;;;19.67;9.02;;;1.00;99.90;;;;;;4988778;28;20053;-71
2023/12/08 00:49:10;;;;;;;20.25;9.30;;;1.10;99.90;;;;;;4988761;28;20081;-72
2023/12/08 00:51:36;;;;;;;14.98;8.93;;;1.10;99.90;;;;;;4980043;28;20053;-72
2023/12/08 00:54:01;;;;;;;16.38;9.90;;;1.00;99.90;;;;;;4954475;28;20037;-72
2023/12/08 00:56:28;;;;;;;22.58;9.73;;;1.10;99.90;;;;;;4980905;28;20398;-72
2023/12/08 00:58:54;;;;;;;11.25;6.65;;;1.10;99.90;;;;;;4969123;28;20056;-72
2023/12/08 01:01:19;;;;;;;16.85;9.65;;;1.10;99.90;;;;;;4999525;28;20042;-72
2023/12/08 01:03:45;;;;;;;17.38;8.40;;;1.10;99.90;;;;;;4972277;28;20554;-72
2023/12/08 01:06:11;;;;;;;17.48;9.55;;;1.10;99.90;;;;;;4988111;28;20050;-72
2023/12/08 01:08:37;;;;;;;11.77;8.13;;;1.10;99.90;;;;;;4975311;28;20090;-72
2023/12/08 01:11:05;;;;;;;15.77;9.93;;;1.00;99.90;;;;;;4987526;28;20133;-72
2023/12/08 01:13:31;;;;;;;12.45;8.70;;;1.00;99.90;;;;;;4979911;28;20136;-72
2023/12/08 01:15:57;;;;;;;4.53;3.67;;;1.00;99.90;;;;;;4971790;28;20137;-72
2023/12/08 01:18:23;;;;;;;8.10;5.18;;;1.00;99.90;;;;;;4988332;28;20050;-72
2023/12/08 01:20:48;;;;;;;17.10;8.20;;;1.00;99.90;;;;;;4976254;28;20101;-72
2023/12/08 01:23:14;;;;;;;15.68;9.52;;;1.00;99.90;;;;;;4955190;28;20090;-72
2023/12/08 01:25:40;;;;;;;15.63;8.20;;;1.00;99.90;;;;;;4970438;28;20935;-72
2023/12/08 01:28:06;;;;;;;19.00;8.52;;;1.00;99.90;;;;;;4987130;28;20049;-72
2023/12/08 01:30:32;;;;;;;19.30;9.05;;;1.00;99.90;;;;;;5005196;28;20127;-72
2023/12/08 01:32:57;;;;;;;9.32;6.57;;;1.00;99.90;;;;;;4978678;28;20046;-72
2023/12/08 01:35:23;;;;;;;13.48;7.75;;;1.00;99.90;;;;;;4974602;28;20081;-72
2023/12/08 01:37:49;;;;;;;12.70;8.05;;;1.00;99.90;;;;;;4988167;28;20046;-72
2023/12/08 01:40:15;;;;;;;16.02;9.63;;;1.00;99.90;;;;;;5000018;28;20050;-72
2023/12/08 01:42:40;;;;;;;12.68;7.60;;;1.00;99.90;;;;;;4978726;28;20042;-72
2023/12/08 01:45:08;;;;;;;14.65;7.82;;;1.00;99.90;;;;;;4985878;28;20041;-72
2023/12/08 01:47:34;;;;;;;15.60;8.13;;;1.00;99.90;;;;;;4988194;28;20049;-72
2023/12/08 01:50:01;;;;;;;18.65;10.00;;;1.00;99.90;;;;;;4985961;28;20049;-72
2023/12/08 01:52:27;;;;;;;16.38;8.90;;;1.00;99.90;;;;;;4988360;28;20084;-72
2023/12/08 01:54:59;;;;;;;9.32;6.20;;;1.00;99.90;;;;;;4964205;28;20082;-72
2023/12/08 01:57:25;;;;;;;11.07;5.40;;;1.10;99.90;;;;;;4986443;28;20081;-72
2023/12/08 01:59:51;;;;;;;13.18;7.35;;;1.00;99.90;;;;;;4987261;28;20139;-72
2023/12/08 02:02:19;;;;;;;14.40;7.78;;;1.00;99.90;;;;;;4978203;28;20046;-72
2023/12/08 02:04:47;;;;;;;13.85;7.53;;;1.00;99.90;;;;;;4979373;28;20101;-72
2023/12/08 02:07:14;;;;;;;13.30;8.02;;;1.10;99.90;;;;;;4953381;28;20445;-72
2023/12/08 02:09:40;;;;;;;11.95;6.85;;;1.10;99.90;;;;;;4987808;28;20050;-72
2023/12/08 02:12:06;;;;;;;16.58;7.93;;;1.10;99.90;;;;;;4987064;28;20061;-72
2023/12/08 02:14:32;;;;;;;14.13;7.25;;;1.10;99.90;;;;;;4987279;28;20077;-72
2023/12/08 02:17:09;;;;;;;12.35;7.10;;;1.10;99.90;;;;;;4978815;28;20042;-72
2023/12/08 02:19:35;;;;;;;13.45;6.72;;;1.10;99.90;;;;;;4986841;28;20061;-72
2023/12/08 02:22:01;;;;;;;9.90;6.53;;;1.10;99.90;;;;;;4987537;28;20076;-73
2023/12/08 02:24:27;;;;;;;15.85;8.38;;;1.10;99.90;;;;;;4986591;28;20073;-72
2023/12/08 02:26:53;;;;;;;13.93;7.45;;;1.10;99.90;;;;;;4981653;28;20132;-72
2023/12/08 02:29:19;;;;;;;12.60;7.35;;;1.10;99.90;;;;;;5002965;28;20504;-72
2023/12/08 02:31:55;;;;;;;10.93;6.32;;;1.10;99.90;;;;;;4985869;28;20095;-72
2023/12/08 02:34:25;;;;;;;12.57;7.60;;;1.10;99.90;;;;;;4987474;28;20504;-72
2023/12/08 02:36:52;;;;;;;;;;;1.10;99.90;;;;;;4984580;28;20500;-72
2023/12/08 02:39:20;;;;;;;4.25;2.97;;;1.10;99.90;;;;;;5003429;28;20055;-72
2023/12/08 02:41:46;;;;;;;9.70;6.05;;;1.20;99.90;;;;;;4985055;28;20050;-73
2023/12/08 02:44:12;;;;;;;15.07;8.25;;;1.10;99.90;;;;;;4995531;28;20560;-72
2023/12/08 02:46:39;;;;;;;15.70;7.90;;;1.20;99.90;;;;;;4971375;28;20042;-72
2023/12/08 02:49:05;;;;;;;11.27;6.20;;;1.10;99.90;;;;;;4977133;28;20050;-72
2023/12/08 02:51:31;;;;;;;13.30;7.45;;;1.10;99.90;;;;;;4965590;28;20522;-72
2023/12/08 02:53:57;;;;;;;11.60;7.20;;;1.10;99.90;;;;;;4969868;28;20049;-72
2023/12/08 02:56:22;;;;;;;8.75;5.90;;;1.20;99.90;;;;;;4962588;28;20125;-72
2023/12/08 02:58:48;;;;;;;14.65;7.35;;;1.20;99.90;;;;;;4962871;28;20447;-72
2023/12/08 03:01:14;;;;;;;20.90;8.38;;;1.20;99.90;;;;;;4958917;28;20064;-72
2023/12/08 03:03:40;;;;;;;9.38;6.68;;;1.20;99.90;;;;;;4966981;28;20053;-72
2023/12/08 03:06:06;;;;;;;12.65;7.07;;;1.20;99.90;;;;;;4972350;28;20153;-72
2023/12/08 03:08:33;;;;;;;13.05;7.03;;;1.20;99.90;;;;;;4956632;28;20054;-72
2023/12/08 03:11:00;;;;;;;13.07;6.82;;;1.20;99.90;;;;;;4963891;28;20073;-72
2023/12/08 03:13:25;;;;;;;12.05;5.90;;;1.20;99.90;;;;;;4957998;28;20473;-72
2023/12/08 03:15:51;;;;;;;6.53;4.97;;;1.20;99.90;;;;;;4966127;28;20052;-72
2023/12/08 03:18:17;;;;;;;6.95;5.03;;;1.20;99.90;;;;;;4982293;28;20105;-72
2023/12/08 03:20:43;;;;;;;14.70;6.90;;;1.20;99.90;;;;;;4957752;28;20050;-72
2023/12/08 03:23:08;;;;;;;12.38;5.47;;;1.20;99.90;;;;;;4986270;28;20176;-72
2023/12/08 03:25:34;;;;;;;5.93;3.83;;;1.20;99.90;;;;;;4986037;28;20045;-72
2023/12/08 03:28:00;;;;;;;12.23;5.32;;;1.20;99.90;;;;;;5002560;28;20042;-72
2023/12/08 03:30:26;;;;;;;9.75;6.40;;;1.20;99.90;;;;;;4960243;28;20054;-72
2023/12/08 03:32:51;;;;;;;15.00;7.18;;;1.20;99.90;;;;;;5000764;28;20052;-72
2023/12/08 03:35:20;;;;;;;9.85;6.40;;;1.20;99.90;;;;;;4987022;28;20374;-72
2023/12/08 03:37:45;;;;;;;12.75;7.43;;;1.20;99.90;;;;;;4985561;28;20050;-72
2023/12/08 03:40:11;;;;;;;10.77;6.75;;;1.20;99.90;;;;;;4977826;28;20045;-72
2023/12/08 03:42:37;;;;;;;22.33;7.18;;;1.20;99.90;;;;;;4985793;28;20061;-72
2023/12/08 03:45:04;;;;;;;10.35;6.32;;;1.30;99.90;;;;;;4986428;28;20084;-72
2023/12/08 03:47:30;;;;;;;16.30;7.35;;;1.20;99.90;;;;;;4986069;28;20045;-72
2023/12/08 03:49:55;;;;;;;14.32;7.03;;;1.20;99.90;;;;;;4980911;28;20054;-72
2023/12/08 03:52:21;;;;;;;10.18;5.75;;;1.20;99.90;;;;;;4986030;28;20558;-72
2023/12/08 03:54:47;;;;;;;10.30;6.60;;;1.20;99.90;;;;;;4984749;28;20056;-72
2023/12/08 03:57:12;;;;;;;11.98;7.13;;;1.20;99.90;;;;;;4973155;28;20053;-72
2023/12/08 03:59:40;;;;;;;6.88;5.32;;;1.20;99.90;;;;;;4982070;28;20133;-72
2023/12/08 04:02:07;;;;;;;14.93;7.38;;;1.20;99.90;;;;;;4978747;28;20042;-72
2023/12/08 04:04:33;;;;;;;10.43;6.25;;;1.20;99.90;;;;;;4986106;28;20038;-72
2023/12/08 04:06:59;;;;;;;12.68;6.65;;;1.20;99.90;;;;;;4982557;28;20057;-72
2023/12/08 04:09:25;;;;;;;9.90;5.72;;;1.20;99.90;;;;;;4961641;28;20050;-72
2023/12/08 04:11:51;;;;;;;10.57;5.43;;;1.20;99.90;;;;;;4941565;28;20513;-72
2023/12/08 04:14:16;;;;;;;7.75;5.20;;;1.20;99.90;;;;;;4949801;28;20049;-72
2023/12/08 04:16:42;;;;;;;7.53;5.43;;;1.20;99.90;;;;;;4967959;28;20042;-72
2023/12/08 04:19:09;;;;;;;9.27;6.28;;;1.20;99.90;;;;;;4967272;28;20043;-72
2023/12/08 04:21:35;;;;;;;9.98;6.32;;;1.20;99.90;;;;;;4956928;28;20160;-72
2023/12/08 04:24:00;;;;;;;8.70;5.47;;;1.20;99.90;;;;;;4948432;28;20129;-72
2023/12/08 04:26:26;;;;;;;8.00;5.53;;;1.20;99.90;;;;;;4985738;28;20397;-72
2023/12/08 04:28:53;;;;;;;9.20;6.93;;;1.30;99.90;;;;;;4953385;28;20046;-72
2023/12/08 04:31:20;;;;;;;10.10;5.70;;;1.30;99.90;;;;;;4942031;29;20043;-72
2023/12/08 04:33:47;;;;;;;6.60;4.68;;;1.20;99.90;;;;;;4932679;28;20042;-72
2023/12/08 04:36:13;;;;;;;5.70;3.83;;;1.30;99.90;;;;;;4966667;28;20061;-72
2023/12/08 04:38:39;;;;;;;11.93;5.10;;;1.30;99.90;;;;;;4967411;28;20105;-72
2023/12/08 04:41:05;;;;;;;6.18;4.53;;;1.30;99.90;;;;;;4966733;28;20047;-72
2023/12/08 04:43:31;;;;;;;12.60;6.97;;;1.30;99.90;;;;;;4951937;28;20134;-72
2023/12/08 04:45:57;;;;;;;8.95;6.40;;;1.30;99.90;;;;;;4962666;28;20058;-72
2023/12/08 04:48:22;;;;;;;15.85;7.70;;;1.30;99.90;;;;;;4966102;28;20126;-72
2023/12/08 04:50:51;;;;;;;9.70;5.63;;;1.40;99.90;;;;;;4968815;28;20043;-72
2023/12/08 04:53:17;;;;;;;10.73;6.70;;;1.30;99.90;;;;;;4957887;28;20109;-72
2023/12/08 04:55:43;;;;;;;5.30;4.03;;;1.30;99.90;;;;;;4967639;28;20047;-72
2023/12/08 04:58:09;;;;;;;10.70;6.50;;;1.30;99.90;;;;;;4966201;28;20043;-72
2023/12/08 05:00:34;;;;;;;12.00;6.70;;;1.30;99.90;;;;;;4966209;28;20043;-72
2023/12/08 05:03:00;;;;;;;9.35;5.45;;;1.30;99.90;;;;;;4947884;28;20398;-72
2023/12/08 05:05:26;;;;;;;17.83;6.40;;;1.30;99.90;;;;;;4965777;28;20048;-72
2023/12/08 05:07:52;;;;;;;8.25;5.55;;;1.30;99.90;;;;;;4987236;28;20524;-72
2023/12/08 05:10:18;;;;;;;9.40;6.25;;;1.30;99.90;;;;;;4982145;28;20054;-72
2023/12/08 05:12:44;;;;;;;15.05;7.50;;;1.30;99.90;;;;;;4998947;28;20116;-72
2023/12/08 05:15:10;;;;;;;12.07;6.65;;;1.30;99.90;;;;;;4989328;28;20147;-72
2023/12/08 05:17:36;;;;;;;11.75;5.47;;;1.30;99.90;;;;;;4987645;28;20061;-72
2023/12/08 05:20:03;;;;;;;11.95;7.65;;;1.20;99.90;;;;;;4988535;28;20045;-72
2023/12/08 05:22:29;;;;;;;6.50;5.05;;;1.20;99.90;;;;;;4985661;28;20501;-72
2023/12/08 05:24:55;;;;;;;9.88;6.10;;;1.20;99.90;;;;;;4981818;28;20516;-72
2023/12/08 05:27:21;;;;;;;14.10;7.70;;;1.20;99.90;;;;;;4980979;28;20053;-71
2023/12/08 05:29:46;;;;;;;10.95;5.50;;;1.10;99.90;;;;;;4986253;28;20104;-72
2023/12/08 05:32:12;;;;;;;11.18;6.45;;;1.20;99.90;;;;;;4974502;28;20141;-72
2023/12/08 05:34:39;;;;;;;13.25;6.88;;;1.10;99.90;;;;;;4966994;28;20046;-72
2023/12/08 05:37:07;;;;;;;9.93;5.90;;;1.10;99.90;;;;;;4995307;28;20411;-71
2023/12/08 05:39:33;;;;;;;11.20;7.32;;;1.10;99.90;;;;;;4987247;28;20102;-72
2023/12/08 05:41:59;;;;;;;10.50;4.97;;;1.10;99.90;;;;;;4981859;28;20046;-72
2023/12/08 05:44:24;;;;;;;5.85;3.03;;;1.10;99.90;;;;;;4975255;28;20058;-72
2023/12/08 05:46:50;;;;;;;11.60;5.82;;;1.00;99.90;;;;;;4970696;28;20595;-71
2023/12/08 05:49:17;;;;;;;12.15;7.22;;;1.10;99.90;;;;;;5001324;28;20042;-72
2023/12/08 05:51:44;;;;;;;9.60;6.07;;;1.10;99.90;;;;;;4980247;28;20049;-72
2023/12/08 05:54:10;;;;;;;13.43;7.72;;;1.10;99.90;;;;;;4999238;28;20568;-72
2023/12/08 05:56:36;;;;;;;6.80;4.40;;;1.10;99.90;;;;;;4992240;28;20137;-71
2023/12/08 05:59:02;;;;;;;13.60;7.78;;;1.10;99.90;;;;;;4973868;28;20042;-71
2023/12/08 06:01:28;;;;;;;15.43;7.65;;;1.00;99.90;;;;;;4987417;28;20050;-71
2023/12/08 06:03:54;;;;;;;7.97;5.05;;;1.10;99.90;;;;;;4972376;28;20054;-71
2023/12/08 06:06:20;;;;;;;9.75;6.00;;;1.00;99.90;;;;;;4997571;28;20481;-71
2023/12/08 06:08:46;;;;;;;13.30;6.50;;;1.00;99.90;;;;;;4975710;28;20125;-70
2023/12/08 06:11:12;;;;;;;4.65;2.80;;;1.00;99.90;;;;;;4991721;28;20125;-71
2023/12/08 06:13:38;;;;;;;7.05;4.07;;;1.00;99.90;;;;;;4978427;28;20396;-71
2023/12/08 06:16:04;;;;;;;11.52;5.38;;;1.00;99.90;;;;;;4986084;28;20484;-71
2023/12/08 06:18:30;;;;;;;7.63;5.68;;;0.90;99.90;;;;;;5004414;28;20054;-71
2023/12/08 06:20:55;;;;;;;10.50;6.60;;;1.00;99.90;;;;;;4971285;28;20061;-71
2023/12/08 06:23:21;;;;;;;7.43;5.80;;;0.90;99.90;;;;;;4987816;28;20085;-70
2023/12/08 06:25:47;;;;;;;6.63;4.60;;;0.90;99.90;;;;;;4983712;28;20786;-71
2023/12/08 06:28:13;;;;;;;13.27;7.88;;;0.90;99.90;;;;;;4975414;28;20041;-71
2023/12/08 06:30:38;;;;;;;24.65;6.80;;;0.90;99.90;;;;;;4965912;28;20481;-71
2023/12/08 06:33:05;;;;;;;6.90;5.18;;;0.90;99.90;;;;;;5003055;28;20052;-71
2023/12/08 06:35:30;;;;;;;10.63;5.53;;;0.90;99.90;;;;;;4985822;28;20081;-71
2023/12/08 06:37:56;;;;;;;7.95;5.40;;;0.90;99.90;;;;;;5001577;28;20085;-71
2023/12/08 06:40:22;;;;;;;16.17;9.00;;;0.90;99.90;;;;;;4974723;28;20168;-71
2023/12/08 06:42:47;;;;;;;9.18;5.72;;;0.90;99.90;;;;;;5003008;28;20052;-70
2023/12/08 06:45:13;;;;;;;9.40;5.70;;;0.70;99.90;;;;;;4986861;28;20749;-71
2023/12/08 06:47:39;;;;;;;9.20;5.43;;;0.80;99.90;;;;;;4986127;28;20054;-71
2023/12/08 06:50:05;;;;;;;15.18;7.05;;;0.80;99.90;;;;;;5000686;28;20053;-71
2023/12/08 06:52:32;;;;;;;10.35;5.68;;;0.80;99.90;;;;;;4986272;28;20519;-71
2023/12/08 06:54:57;;;;;;;7.85;5.88;;;0.80;99.90;;;;;;4986991;28;20053;-71
2023/12/08 06:57:23;;;;;;;11.82;6.30;;;0.80;99.90;;;;;;4995122;28;20072;-70
2023/12/08 06:59:49;;;;;;;11.38;6.97;;;0.80;99.90;;;;;;5002453;28;20088;-70
2023/12/08 07:02:15;;;;;;;10.73;6.28;;;0.80;99.90;;;;;;4974049;28;20400;-71
2023/12/08 07:04:40;;;;;;;8.75;5.10;;;0.80;99.90;;;;;;4986401;28;20612;-71
2023/12/08 07:07:06;;;;;;;11.73;6.35;;;0.80;99.90;;;;;;5000954;28;20427;-71
2023/12/08 07:09:32;;;;;;;6.75;4.07;;;0.80;99.90;;;;;;4963613;28;20046;-70
2023/12/08 07:11:57;;;;;;;9.95;5.60;;;0.80;99.90;;;;;;4978495;28;20447;-71
2023/12/08 07:14:23;;;;;;;8.57;5.70;;;0.70;99.90;;;;;;5002632;28;20077;-71
2023/12/08 07:16:50;;;;;;;14.20;7.85;;;0.80;99.90;;;;;;5002595;28;20060;-70
2023/12/08 07:19:15;;;;;;;11.50;6.50;;;0.80;99.90;;;;;;4986270;28;20058;-71
2023/12/08 07:21:44;;;;;;;12.98;7.03;;;0.70;99.90;;;;;;4977244;28;20046;-70
2023/12/08 07:24:11;;;;;;;14.15;6.05;;;0.80;99.90;;;;;;4981455;28;20062;-71
2023/12/08 07:26:37;;;;;;;12.52;7.28;;;0.80;99.90;;;;;;4985741;28;20396;-71
2023/12/08 07:29:03;;;;;;;11.40;7.43;;;0.80;99.90;;;;;;4986914;28;20104;-70
2023/12/08 07:31:29;;;;;;;12.25;7.47;;;0.70;99.90;;;;;;4982797;28;20045;-71
2023/12/08 07:33:55;;;;;;;18.17;6.13;;;0.80;99.90;;;;;;4977208;28;20788;-71
2023/12/08 07:36:21;;;;;;;12.45;6.30;;;0.70;99.90;;;;;;4973420;28;20448;-70
2023/12/08 07:38:46;;;;;;;11.20;7.32;;;0.70;99.90;;;;;;4993711;28;20058;-71
2023/12/08 07:41:12;;;;;;;10.95;7.03;;;0.80;99.90;;;;;;4981637;28;20520;-71
2023/12/08 07:43:38;;;;;;;12.35;6.35;;;0.70;99.90;;;;;;4975578;28;20041;-70
2023/12/08 07:46:04;;;;;;;11.80;7.32;;;0.70;99.90;;;;;;4986929;28;20049;-70
2023/12/08 07:48:30;;;;;;;12.18;7.28;;;0.70;99.90;;;;;;4984062;28;20038;-70
2023/12/08 07:50:55;;;;;;;14.48;8.07;;;0.80;99.90;;;;;;4981120;28;20133;-70
2023/12/08 07:53:22;;;;;;;9.25;6.10;;;0.80;99.90;;;;;;4999338;28;20471;-70
2023/12/08 07:55:48;;;;;;;7.32;4.90;;;0.70;99.90;;;;;;4979096;28;20066;-70
2023/12/08 07:58:14;;;;;;;10.00;6.82;;;0.80;99.90;;;;;;4985073;28;20053;-70
2023/12/08 08:00:40;;;;;;;12.55;8.10;;;0.80;99.90;;;;;;4989155;28;20404;-71
2023/12/08 08:03:05;;;;;;;16.42;6.97;;;0.70;99.90;;;;;;4985549;28;20116;-70
2023/12/08 08:05:31;;;;;;;13.18;7.13;;;0.80;99.90;;;;;;5006839;28;20404;-70
2023/12/08 08:07:57;;;;;;;18.45;8.75;;;0.80;99.90;;;;;;4977529;28;20050;-70
2023/12/08 08:10:22;;;;;;;14.60;7.55;;;0.70;99.90;;;;;;4972397;28;20046;-70
2023/12/08 08:12:48;;;;;;;12.75;8.02;;;0.80;99.90;;;;;;4990976;28;20382;-70
2023/12/08 08:15:14;;;;;;;12.38;7.40;;;0.80;99.90;;;;;;4957519;28;20433;-71
2023/12/08 08:17:40;;;;;;;12.13;6.25;;;0.80;99.90;;;;;;4984528;28;20136;-70
2023/12/08 08:20:07;;;;;;;16.38;8.50;;;0.80;99.90;;;;;;4973211;28;20054;-70
2023/12/08 08:22:33;;;;;;;11.82;7.45;;;0.90;99.90;;;;;;4982702;28;20050;-70
2023/12/08 08:25:01;;;;;;;18.15;9.52;;;0.80;99.90;;;;;;4987905;28;20050;-71
2023/12/08 08:27:28;;;;;;;10.13;6.00;;;0.80;99.90;;;;;;4972099;28;20548;-70
2023/12/08 08:29:54;;;;;;;9.20;5.78;;;0.80;99.90;;;;;;4969544;28;20050;-70
2023/12/08 08:32:20;;;;;;;14.07;7.18;;;0.80;99.90;;;;;;4971468;28;20046;-71
2023/12/08 08:34:46;;;;;;;8.65;5.85;;;0.80;99.90;;;;;;4989193;28;20627;-70
2023/12/08 08:37:12;;;;;;;13.88;7.63;;;0.80;99.90;;;;;;4964169;28;20086;-70
2023/12/08 08:39:38;;;;;;;9.27;5.93;;;0.90;99.90;;;;;;4962755;28;20072;-70
2023/12/08 08:42:03;;;;;;;16.15;9.18;;;0.80;99.90;;;;;;4974642;28;20042;-70
2023/12/08 08:44:29;;;;;;;10.35;5.20;;;0.80;99.90;;;;;;4973516;28;20064;-70
2023/12/08 08:46:55;;;;;;;12.75;6.30;;;0.90;99.90;;;;;;4979294;28;20108;-70
2023/12/08 08:49:22;;;;;;;8.68;5.03;;;0.90;99.90;;;;;;4956283;28;20062;-70
2023/12/08 08:51:48;;;;;;;10.50;6.40;;;0.90;99.90;;;;;;4973444;28;20042;-70
2023/12/08 08:54:14;;;;;;;12.52;6.95;;;0.90;99.90;;;;;;4968733;28;20149;-70
2023/12/08 08:56:40;;;;;;;6.70;5.03;;;0.80;99.90;;;;;;4981259;28;20117;-70
2023/12/08 08:59:07;;;;;;;6.57;4.28;;;0.90;99.90;;;;;;4980470;28;20042;-70
2023/12/08 09:01:33;;;;;;;10.60;6.63;;;0.90;99.90;;;;;;5000253;28;20112;-70
2023/12/08 09:03:58;;;;;;;14.18;7.80;;;0.80;99.90;;;;;;4988596;28;20049;-70
2023/12/08 09:06:24;;;;;;;10.55;7.32;;;0.90;99.90;;;;;;4983253;28;20058;-70
2023/12/08 09:08:51;;;;;;;11.57;7.65;;;0.90;99.90;;;;;;4980914;28;20045;-70
2023/12/08 09:11:17;;;;;;;13.10;7.57;;;0.80;99.90;;;;;;4987402;28;20546;-70
2023/12/08 09:13:42;;;;;;;15.55;8.63;;;0.90;99.90;;;;;;4980643;28;20045;-70
2023/12/08 09:16:08;;;;;;;8.85;6.13;;;0.90;99.90;;;;;;4984823;28;20396;-70
2023/12/08 09:18:35;;;;;;;10.90;7.18;;;0.90;99.90;;;;;;4968523;28;20047;-70
2023/12/08 09:21:01;;;;;;;11.25;7.45;;;0.90;99.90;;;;;;4982065;28;20085;-69
2023/12/08 09:23:27;;;;;;;11.23;6.18;;;0.90;99.90;;;;;;4984924;28;20042;-69
2023/12/08 09:25:53;;;;;;;7.63;5.30;;;0.90;99.90;;;;;;4982673;28;20053;-69
2023/12/08 09:28:20;;;;;;;8.68;5.75;;;0.90;99.90;;;;;;4977928;28;20445;-70
2023/12/08 09:30:46;;;;;;;10.15;4.70;;;0.90;99.90;;;;;;4982732;28;20046;-70
2023/12/08 09:33:12;;;;;;;6.70;3.80;;;0.90;99.90;;;;;;4970726;28;20042;-69
2023/12/08 09:35:38;;;;;;;12.45;7.32;;;1.00;99.90;;;;;;4978391;28;20408;-70
2023/12/08 09:38:04;;;;;;;9.50;4.75;;;0.90;99.90;;;;;;5004190;28;20050;-70
2023/12/08 09:40:32;;;;;;;6.70;4.00;;;1.00;99.90;;;;;;4982971;28;20045;-69
2023/12/08 09:43:05;;;;;;;12.38;7.50;;;0.90;99.90;;;;;;4987958;28;20497;-69
2023/12/08 09:45:30;;;;;;;13.57;6.78;;;0.90;99.90;;;;;;4982334;28;20104;-70
2023/12/08 09:47:58;;;;;;;11.65;6.80;;;1.00;99.90;;;;;;4960770;28;20501;-70
2023/12/08 09:50:26;;;;;;;13.13;8.13;;;0.90;99.90;;;;;;4961449;28;20061;-70
2023/12/08 09:52:53;;;;;;;11.48;7.82;;;0.90;99.90;;;;;;4998491;28;20046;-70
2023/12/08 09:55:20;;;;;;;17.10;9.00;;;1.00;99.90;;;;;;4979347;28;20084;-70
2023/12/08 09:57:48;;;;;;;12.40;7.32;;;0.90;99.90;;;;;;4986651;28;20052;-69
2023/12/08 10:00:15;;;;;;;12.85;8.02;;;0.90;99.90;;;;;;4973335;28;20045;-70
2023/12/08 10:02:41;;;;;;;12.38;7.35;;;0.90;99.90;;;;;;4980787;28;20046;-70
2023/12/08 10:05:11;;;;;;;16.80;8.55;;;1.00;99.90;;;;;;4966823;28;20038;-70
2023/12/08 10:07:40;;;;;;;11.50;6.75;;;1.00;99.90;;;;;;4981768;28;20104;-70
2023/12/08 10:10:08;;;;;;;11.05;6.65;;;0.90;99.90;;;;;;4971458;28;20046;-70
2023/12/08 10:12:34;;;;;;;16.58;9.00;;;1.00;99.90;;;;;;4970763;28;20392;-70
2023/12/08 10:15:04;;;;;;;14.55;7.32;;;1.00;99.90;;;;;;4982445;28;20796;-70
2023/12/08 10:17:30;;;;;;;12.63;6.50;;;1.00;99.90;;;;;;4956027;28;20511;-70
2023/12/08 10:20:12;;;;;;;18.98;8.63;;;1.10;99.90;;;;;;4967926;28;20077;-69
2023/12/08 10:22:48;;;;;;;14.52;7.53;;;1.00;99.90;;;;;;4969646;28;20046;-70
2023/12/08 10:25:16;;;;;;;11.25;7.65;;;1.00;99.90;;;;;;4984354;28;20065;-70
2023/12/08 10:27:46;;;;;;;13.90;7.70;;;1.10;99.90;;;;;;4981293;28;20042;-70
2023/12/08 10:30:12;;;;;;;12.43;6.93;;;1.00;99.90;;;;;;4972240;28;20050;-69
2023/12/08 10:32:39;;;;;;;8.90;5.82;;;1.10;99.90;;;;;;4973874;28;20046;-69
2023/12/08 10:35:05;;;;;;;12.73;7.60;;;1.10;99.90;;;;;;4985742;28;20068;-69
2023/12/08 10:37:31;;;;;;;13.38;8.43;;;1.10;99.90;;;;;;4967878;28;20045;-70
2023/12/08 10:39:58;;;;;;;15.27;7.85;;;1.10;99.90;;;;;;4983638;28;20673;-70
2023/12/08 10:42:24;;;;;;;14.18;8.88;;;1.00;99.90;;;;;;4976216;28;20041;-70
2023/12/08 10:44:50;;;;;;;19.27;9.48;;;1.10;99.90;;;;;;4978740;28;20430;-70
2023/12/08 10:47:17;;;;;;;14.85;9.05;;;1.10;99.90;;;;;;4971081;28;20520;-70
2023/12/08 10:49:43;;;;;;;14.27;8.32;;;1.10;99.90;;;;;;4972546;28;20532;-70
2023/12/08 10:52:09;;;;;;;13.30;7.88;;;1.20;99.90;;;;;;4982388;28;20089;-70
2023/12/08 10:54:35;;;;;;;18.63;9.35;;;1.10;99.90;;;;;;4989973;28;20379;-70
2023/12/08 10:57:01;;;;;;;19.27;9.90;;;1.10;99.90;;;;;;4980297;28;20064;-70
2023/12/08 10:59:29;;;;;;;14.43;8.93;;;1.20;99.90;;;;;;4958114;28;20061;-69
2023/12/08 11:01:58;;;;;;;13.93;8.85;;;1.20;99.90;;;;;;4970804;28;20334;-69
2023/12/08 11:04:26;;;;;;;12.68;6.90;;;1.20;99.90;;;;;;4960024;28;20520;-70
2023/12/08 11:07:09;;;;;;;14.23;8.82;;;1.30;99.90;;;;;;4991824;28;20137;-69
2023/12/08 11:09:38;;;;;;;13.45;8.18;;;1.30;99.90;;;;;;4960107;28;20061;-70
2023/12/08 11:12:06;;;;;;;17.65;8.45;;;1.20;99.90;;;;;;4978279;28;20052;-69
2023/12/08 11:14:39;;;;;;;13.48;8.55;;;1.20;99.90;;;;;;4983744;28;20049;-69
2023/12/08 11:17:19;;;;;;;23.13;9.32;;;1.30;99.90;;;;;;4984837;28;20377;-70
2023/12/08 11:19:46;;;;;;;19.20;8.95;;;1.20;99.90;;;;;;4969406;28;20400;-70
2023/12/08 11:22:12;;;;;;;13.07;7.38;;;1.30;99.90;;;;;;4982056;28;20052;-69
2023/12/08 11:24:40;;;;;;;15.00;8.40;;;1.30;99.90;;;;;;5000056;28;20097;-70
2023/12/08 11:27:49;;;;;;;14.25;8.60;;;1.30;99.90;;;;;;4967071;28;20601;-70
2023/12/08 11:30:48;;;;;;;12.48;7.80;;;1.40;99.90;;;;;;4923529;28;20066;-70
2023/12/08 11:33:35;;;;;;;14.20;8.73;;;1.30;99.90;;;;;;4967383;28;20413;-70
2023/12/08 11:36:10;;;;;;;9.55;6.20;;;1.40;99.90;;;;;;4984210;28;20037;-70
2023/12/08 11:38:39;;;;;;;11.52;7.15;;;1.40;99.90;;;;;;4968465;28;20050;-70
2023/12/08 11:41:12;;;;;;;11.38;7.50;;;1.40;99.90;;;;;;4975087;28;20046;-70
2023/12/08 11:43:39;;;;;;;12.07;6.70;;;1.40;99.90;;;;;;4971527;28;20531;-70
2023/12/08 11:46:05;;;;;;;11.18;6.70;;;1.30;99.90;;;;;;4983757;28;20061;-70
2023/12/08 11:48:31;;;;;;;10.65;6.90;;;1.30;99.90;;;;;;4968559;28;20556;-70
2023/12/08 11:51:03;;;;;;;12.68;7.72;;;1.40;99.90;;;;;;4980795;28;20515;-70
2023/12/08 11:53:47;;;;;;;11.20;7.80;;;1.30;99.90;;;;;;4983803;28;20121;-70
2023/12/08 11:56:38;;;;;;;13.15;7.30;;;1.40;99.90;;;;;;4996252;28;20563;-70
2023/12/08 11:59:04;;;;;;;12.45;7.53;;;1.40;99.90;;;;;;4964716;28;20124;-70
2023/12/08 12:01:30;;;;;;;13.98;8.15;;;1.40;99.90;;;;;;4970485;28;20046;-70
2023/12/08 12:03:56;;;;;;;7.53;5.28;;;1.40;99.90;;;;;;4948877;28;20373;-70
2023/12/08 12:06:23;;;;;;;11.32;7.30;;;1.40;99.90;;;;;;4972551;28;20785;-70
2023/12/08 12:08:50;;;;;;;10.65;6.90;;;1.40;99.90;;;;;;4973549;28;20529;-70
2023/12/08 12:11:21;;;;;;;14.43;8.52;;;1.40;99.90;;;;;;4964448;28;20090;-70
2023/12/08 12:13:48;;;;;;;14.70;8.80;;;1.40;99.90;;;;;;4978206;28;20073;-70
2023/12/08 12:16:14;;;;;;;17.63;9.20;;;1.40;99.90;;;;;;4978278;28;20142;-70
2023/12/08 12:18:40;;;;;;;13.48;8.05;;;1.40;99.90;;;;;;4976052;28;20045;-70
2023/12/08 12:21:08;;;;;;;8.15;5.32;;;1.40;99.90;;;;;;4986311;28;20060;-70
2023/12/08 12:23:34;;;;;;;14.35;7.43;;;1.50;99.90;;;;;;4964283;28;20658;-70
2023/12/08 12:25:59;;;;;;;13.80;8.85;;;1.40;99.90;;;;;;4973854;28;20054;-71
2023/12/08 12:28:25;;;;;;;19.30;10.35;;;1.40;99.90;;;;;;4971207;28;20452;-71
2023/12/08 12:30:51;;;;;;;17.45;9.57;;;1.50;99.90;;;;;;4983638;28;20089;-71
2023/12/08 12:33:17;;;;;;;15.68;9.15;;;1.50;99.90;;;;;;4965816;28;20101;-70
2023/12/08 12:35:43;;;;;;;13.75;8.07;;;1.40;99.90;;;;;;4963827;28;20140;-70
2023/12/08 12:38:17;;;;;;;19.45;9.73;;;1.50;99.90;;;;;;4973363;28;20074;-70
2023/12/08 12:40:43;;;;;;;19.80;9.82;;;1.50;99.90;;;;;;4989171;28;20042;-71
2023/12/08 12:43:15;;;;;;;15.93;8.85;;;1.50;99.90;;;;;;4999419;28;20049;-71
2023/12/08 12:45:40;;;;;;;15.93;8.60;;;1.50;99.90;;;;;;4997539;28;20447;-71
2023/12/08 12:48:08;;;;;;;18.33;9.30;;;1.50;99.90;;;;;;4975583;28;20042;-71